Terminal Aerodrome Forecast
Issued by NWS Jackson, KY

Home | Current Version | Previous Version | Text Only | Print | Product List | Glossary On
Versions: 1 2 3 4 5 6 7 8 9 10 11 12 13 14 15
000
FTUS43 KJKL 281100 CCA
TAFJKL
TAF COR
KJKL 281141Z 2812/2912 00000KT 6SM BR SCT015
     FM281400 VRB03KT P6SM SCT030
     FM290700 VRB03KT 5SM BR FEW030=

USA.gov is the U.S. government's official web portal to all federal, state and local government web resources and services.